createdAt,value
2023-05-18T00:02:21.770Z,97221.06
2023-05-18T00:04:51.076Z,97215.66
2023-05-18T00:07:19.082Z,97213.97
2023-05-18T00:09:47.550Z,97205.31
2023-05-18T00:12:15.407Z,97199.13
2023-05-18T00:14:43.335Z,97200.56
2023-05-18T00:17:11.179Z,97197.44
2023-05-18T00:19:40.674Z,97183.09
2023-05-18T00:22:09.925Z,97192.72
2023-05-18T00:24:37.950Z,97185.72
2023-05-18T00:27:06.017Z,97177.50
2023-05-18T00:29:34.317Z,97173.38
2023-05-18T00:32:02.440Z,97178.63
2023-05-18T00:34:31.135Z,97177.91
2023-05-18T00:36:59.281Z,97186.72
2023-05-18T00:39:28.541Z,97186.56
2023-05-18T00:41:56.484Z,97185.94
2023-05-18T00:44:25.918Z,97190.72
2023-05-18T00:46:53.840Z,97187.88
2023-05-18T00:49:21.835Z,97187.03
2023-05-18T00:51:50.874Z,97190.66
2023-05-18T00:54:19.467Z,97189.03
2023-05-18T00:56:49.324Z,97184.88
2023-05-18T00:59:18.597Z,97179.78
2023-05-18T01:01:46.973Z,97180.56
2023-05-18T01:04:15.159Z,97174.44
2023-05-18T01:06:43.966Z,97172.06
2023-05-18T01:09:13.589Z,97173.22
2023-05-18T01:12:01.064Z,97172.38
2023-05-18T01:14:34.160Z,97168.91
2023-05-18T01:17:14.539Z,97169.81
2023-05-18T01:20:17.882Z,97167.44
2023-05-18T01:23:10.120Z,97174.31
2023-05-18T01:25:48.446Z,97174.63
2023-05-18T01:28:22.001Z,97179.00
2023-05-18T01:30:51.071Z,97168.66
2023-05-18T01:33:19.015Z,97167.13
2023-05-18T01:35:48.593Z,97172.59
2023-05-18T01:38:18.773Z,97170.34
2023-05-18T01:40:57.394Z,97169.50
2023-05-18T01:43:33.016Z,97170.44
2023-05-18T01:46:05.837Z,97168.69
2023-05-18T01:48:38.453Z,97178.66
2023-05-18T01:51:11.272Z,97171.91
2023-05-18T01:53:44.687Z,97170.91
2023-05-18T01:56:15.422Z,97170.19
2023-05-18T01:58:45.294Z,97164.25
2023-05-18T02:01:13.349Z,97166.09
2023-05-18T02:03:41.472Z,97159.03
2023-05-18T02:06:09.441Z,97156.75
2023-05-18T02:08:38.220Z,97158.81
2023-05-18T02:11:06.214Z,97157.97
2023-05-18T02:13:34.478Z,97155.44
2023-05-18T02:16:04.464Z,97157.06
2023-05-18T02:18:34.201Z,97153.84
2023-05-18T02:21:02.924Z,97149.56
2023-05-18T02:23:33.915Z,97155.03
2023-05-18T02:26:02.349Z,97154.19
2023-05-18T02:28:30.709Z,97156.16
2023-05-18T02:31:08.005Z,97155.03
2023-05-18T02:33:39.927Z,97154.41
2023-05-18T02:36:10.081Z,97155.34
2023-05-18T02:38:39.413Z,97151.94
2023-05-18T02:41:08.703Z,97142.41
2023-05-18T02:43:37.200Z,97146.13
2023-05-18T02:46:07.290Z,97148.69
2023-05-18T02:48:35.800Z,97140.06
2023-05-18T02:51:03.666Z,97142.69
2023-05-18T02:53:31.750Z,97139.44
2023-05-18T02:56:05.115Z,97138.72
2023-05-18T02:58:44.466Z,97131.78
2023-05-18T03:01:22.162Z,97138.94
2023-05-18T03:03:53.666Z,97132.00
2023-05-18T03:06:23.442Z,97145.16
2023-05-18T03:08:51.779Z,97135.84
2023-05-18T03:11:19.746Z,97133.06
2023-05-18T03:13:47.940Z,97136.88
2023-05-18T03:16:17.757Z,97131.72
2023-05-18T03:18:48.757Z,97145.72
2023-05-18T03:21:17.380Z,97132.88
2023-05-18T03:23:46.430Z,97142.41
2023-05-18T03:26:14.398Z,97138.47
2023-05-18T03:28:42.488Z,97140.88
2023-05-18T03:31:11.122Z,97133.22
2023-05-18T03:33:39.116Z,97137.72
2023-05-18T03:36:09.345Z,97136.94
2023-05-18T03:38:37.230Z,97143.06
2023-05-18T03:41:10.807Z,97145.59
2023-05-18T03:43:38.774Z,97144.69
2023-05-18T03:46:08.076Z,97135.97
2023-05-18T03:48:37.267Z,97146.63
2023-05-18T03:51:06.453Z,97140.56
2023-05-18T03:53:37.037Z,97151.09
2023-05-18T03:56:04.978Z,97148.59
2023-05-18T03:58:33.227Z,97148.56
2023-05-18T04:01:01.675Z,97149.25
2023-05-18T04:03:30.676Z,97153.00
2023-05-18T04:05:58.794Z,97159.84
2023-05-18T04:08:26.935Z,97158.38
2023-05-18T04:10:56.228Z,97159.94
2023-05-18T04:13:24.436Z,97159.94
2023-05-18T04:15:52.708Z,97166.72
2023-05-18T04:18:21.023Z,97166.72
2023-05-18T04:20:49.934Z,97169.22
2023-05-18T04:23:18.861Z,97166.44
2023-05-18T04:25:46.757Z,97168.78
2023-05-18T04:28:16.460Z,97174.00
2023-05-18T04:30:44.332Z,97171.28
2023-05-18T04:33:13.410Z,97181.66
2023-05-18T04:35:41.425Z,97179.81
2023-05-18T04:38:10.819Z,97175.09
2023-05-18T04:40:42.508Z,97173.09
2023-05-18T04:43:11.779Z,97172.63
2023-05-18T04:45:42.737Z,97177.75
2023-05-18T04:48:10.915Z,97173.94
2023-05-18T04:50:40.126Z,97171.66
2023-05-18T04:53:09.427Z,97173.91
2023-05-18T04:55:37.707Z,97176.66
2023-05-18T04:58:10.581Z,97175.97
2023-05-18T05:00:38.681Z,97178.22
2023-05-18T05:03:08.057Z,97180.16
2023-05-18T05:05:36.472Z,97182.50
2023-05-18T05:08:06.589Z,97182.81
2023-05-18T05:10:34.479Z,97192.06
2023-05-18T05:13:02.417Z,97185.34
2023-05-18T05:15:30.987Z,97181.47
2023-05-18T05:17:59.833Z,97187.09
2023-05-18T05:20:29.267Z,97184.06
2023-05-18T05:22:57.168Z,97187.28
2023-05-18T05:25:27.412Z,97174.63
2023-05-18T05:27:55.501Z,97174.16
2023-05-18T05:30:23.662Z,97175.69
2023-05-18T05:32:51.570Z,97179.59
2023-05-18T05:35:19.687Z,97190.81
2023-05-18T05:37:50.212Z,97179.88
2023-05-18T05:40:18.709Z,97178.44
2023-05-18T05:42:47.700Z,97177.19
2023-05-18T05:45:15.631Z,97185.75
2023-05-18T05:47:50.732Z,97176.50
2023-05-18T05:50:20.812Z,97176.88
2023-05-18T05:52:52.038Z,97179.72
2023-05-18T05:55:20.887Z,97181.69
2023-05-18T05:57:48.744Z,97190.81
2023-05-18T06:00:17.503Z,97184.25
2023-05-18T06:02:58.797Z,97177.06
2023-05-18T06:05:34.902Z,97180.84
2023-05-18T06:08:06.030Z,97183.78
2023-05-18T06:10:34.148Z,97178.84
2023-05-18T06:13:02.426Z,97180.19
2023-05-18T06:15:37.806Z,97182.44
2023-05-18T06:18:06.352Z,97181.97
2023-05-18T06:20:34.538Z,97182.66
2023-05-18T06:23:02.498Z,97181.56
2023-05-18T06:25:49.222Z,97178.94
2023-05-18T06:28:24.571Z,97184.97
2023-05-18T06:31:03.309Z,97182.22
2023-05-18T06:33:38.600Z,97178.47
2023-05-18T06:36:06.872Z,97180.25
2023-05-18T06:38:34.801Z,97186.09
2023-05-18T06:41:04.084Z,97182.53
2023-05-18T06:43:32.019Z,97181.38
2023-05-18T06:46:38.641Z,97184.38
2023-05-18T06:49:13.511Z,97185.63
2023-05-18T06:51:41.757Z,97186.84
2023-05-18T06:54:09.778Z,97184.53
2023-05-18T06:56:39.042Z,97185.19
2023-05-18T06:59:06.897Z,97183.22
2023-05-18T07:01:34.928Z,97183.53
2023-05-18T07:04:05.119Z,97189.09
2023-05-18T07:06:33.471Z,97191.97
2023-05-18T07:09:01.463Z,97190.63
2023-05-18T07:11:29.884Z,97187.88
2023-05-18T07:13:59.252Z,97193.50
2023-05-18T07:16:27.964Z,97193.66
2023-05-18T07:18:56.032Z,97189.84
2023-05-18T07:21:23.929Z,97190.09
2023-05-18T07:23:52.737Z,97183.34
2023-05-18T07:26:22.505Z,97187.69
2023-05-18T07:28:51.362Z,97196.34
2023-05-18T07:31:22.211Z,97192.13
2023-05-18T07:33:50.259Z,97193.09
2023-05-18T07:36:18.114Z,97192.34
2023-05-18T07:38:46.088Z,97193.50
2023-05-18T07:41:14.028Z,97192.78
2023-05-18T07:43:42.354Z,97190.66
2023-05-18T07:46:10.335Z,97190.09
2023-05-18T07:48:41.028Z,97185.25
2023-05-18T07:51:09.334Z,97186.44
2023-05-18T07:53:38.160Z,97186.84
2023-05-18T07:56:07.046Z,97184.91
2023-05-18T07:58:35.232Z,97181.84
2023-05-18T08:01:03.439Z,97187.13
2023-05-18T08:03:31.539Z,97183.56
2023-05-18T08:06:01.092Z,97183.75
2023-05-18T08:08:30.168Z,97182.88
2023-05-18T08:10:58.971Z,97177.63
2023-05-18T08:13:26.873Z,97176.00
2023-05-18T08:16:07.254Z,97182.41
2023-05-18T08:18:38.939Z,97185.50
2023-05-18T08:21:09.953Z,97184.75
2023-05-18T08:23:38.613Z,97181.06
2023-05-18T08:26:08.210Z,97176.31
2023-05-18T08:28:36.617Z,97183.19
2023-05-18T08:31:04.504Z,97172.59
2023-05-18T08:33:33.358Z,97170.44
2023-05-18T08:36:01.297Z,97169.34
2023-05-18T08:38:32.187Z,97173.13
2023-05-18T08:41:07.631Z,97165.19
2023-05-18T08:43:39.299Z,97172.41
2023-05-18T08:46:14.660Z,97169.78
2023-05-18T08:48:46.721Z,97160.63
2023-05-18T08:51:20.825Z,97163.63
2023-05-18T08:53:53.879Z,97160.53
2023-05-18T08:56:24.527Z,97157.75
2023-05-18T08:58:55.680Z,97163.56
2023-05-18T09:01:28.253Z,97159.59
2023-05-18T09:03:58.125Z,97160.72
2023-05-18T09:06:26.481Z,97149.38
2023-05-18T09:08:57.669Z,97155.38
2023-05-18T09:11:27.273Z,97145.97
2023-05-18T09:13:56.255Z,97153.47
2023-05-18T09:16:24.601Z,97139.63
2023-05-18T09:18:53.666Z,97142.97
2023-05-18T09:21:21.717Z,97149.81
2023-05-18T09:23:49.848Z,97148.88
2023-05-18T09:26:20.993Z,97145.25
2023-05-18T09:28:53.628Z,97137.78
2023-05-18T09:31:24.394Z,97150.66
2023-05-18T09:33:53.590Z,97160.16
2023-05-18T09:36:26.587Z,97156.06
2023-05-18T09:38:54.548Z,97147.28
2023-05-18T09:41:27.537Z,97154.66
2023-05-18T09:43:55.797Z,97156.31
2023-05-18T09:46:23.742Z,97148.47
2023-05-18T09:48:53.037Z,97145.69
2023-05-18T09:51:24.969Z,97151.13
2023-05-18T09:53:55.512Z,97148.59
2023-05-18T09:56:26.760Z,97144.13
2023-05-18T09:58:55.178Z,97134.53
2023-05-18T10:01:23.309Z,97133.81
2023-05-18T10:03:51.384Z,97136.47
2023-05-18T10:06:20.176Z,97131.16
2023-05-18T10:08:48.373Z,97128.09
2023-05-18T10:11:19.031Z,97135.50
2023-05-18T10:13:48.378Z,97125.38
2023-05-18T10:16:16.601Z,97124.88
2023-05-18T10:18:44.801Z,97128.13
2023-05-18T10:21:15.186Z,97134.75
2023-05-18T10:23:46.491Z,97136.28
2023-05-18T10:26:21.336Z,97134.13
2023-05-18T10:28:54.331Z,97119.13
2023-05-18T10:31:24.476Z,97115.97
2023-05-18T10:33:54.192Z,97117.06
2023-05-18T10:36:25.553Z,97120.44
2023-05-18T10:38:53.734Z,97118.78
2023-05-18T10:41:23.534Z,97123.97
2023-05-18T10:43:55.188Z,97118.56
2023-05-18T10:46:26.781Z,97113.41
2023-05-18T10:48:56.564Z,97110.59
2023-05-18T10:51:27.057Z,97110.59
2023-05-18T10:54:00.551Z,97100.41
2023-05-18T10:56:29.696Z,97105.38
2023-05-18T10:58:59.216Z,97094.81
2023-05-18T11:01:27.415Z,97116.59
2023-05-18T11:03:55.700Z,97107.34
2023-05-18T11:06:25.612Z,97105.16
2023-05-18T11:08:53.766Z,97106.63
2023-05-18T11:11:26.277Z,97110.44
2023-05-18T11:13:54.373Z,97096.94
2023-05-18T11:16:34.725Z,97100.13
2023-05-18T11:19:06.909Z,97085.91
2023-05-18T11:21:53.739Z,97098.69
2023-05-18T11:24:31.791Z,97107.75
2023-05-18T11:27:03.501Z,97099.16
2023-05-18T11:29:33.440Z,97097.88
2023-05-18T11:32:04.841Z,97103.91
2023-05-18T11:34:45.779Z,97100.13
2023-05-18T11:37:15.476Z,97103.91
2023-05-18T11:39:55.290Z,97098.56
2023-05-18T11:42:34.449Z,97086.69
2023-05-18T11:45:07.819Z,97083.22
2023-05-18T11:47:38.032Z,97093.28
2023-05-18T11:50:08.759Z,97095.78
2023-05-18T11:52:47.066Z,97088.53
2023-05-18T11:55:16.315Z,97080.47
2023-05-18T11:57:45.460Z,97075.69
2023-05-18T12:00:15.760Z,97078.53
2023-05-18T12:02:46.615Z,97083.69
2023-05-18T12:05:15.973Z,97084.97
2023-05-18T12:07:44.865Z,97079.78
2023-05-18T12:10:16.122Z,97083.16
2023-05-18T12:12:44.959Z,97077.13
2023-05-18T12:15:16.517Z,97068.72
2023-05-18T12:17:48.371Z,97071.50
2023-05-18T12:20:18.033Z,97060.59
2023-05-18T12:22:50.124Z,97064.25
2023-05-18T12:25:18.043Z,97060.31
2023-05-18T12:27:48.011Z,97058.63
2023-05-18T12:30:19.117Z,97064.94
2023-05-18T12:32:49.536Z,97067.59
2023-05-18T12:35:17.817Z,97054.41
2023-05-18T12:37:46.629Z,97063.13
2023-05-18T12:40:16.211Z,97058.06
2023-05-18T12:42:53.427Z,97062.53
2023-05-18T12:45:25.096Z,97058.31
2023-05-18T12:47:56.237Z,97054.78
2023-05-18T12:50:26.664Z,97054.38
2023-05-18T12:52:55.956Z,97045.25
2023-05-18T12:55:25.237Z,97051.28
2023-05-18T12:58:01.726Z,97047.91
2023-05-18T13:00:33.597Z,97060.81
2023-05-18T13:03:08.887Z,97049.75
2023-05-18T13:05:38.262Z,97043.16
2023-05-18T13:08:06.592Z,97038.56
2023-05-18T13:10:34.897Z,97059.16
2023-05-18T13:13:04.252Z,97050.56
2023-05-18T13:15:35.839Z,97045.50
2023-05-18T13:18:05.965Z,97045.09
2023-05-18T13:20:37.846Z,97050.09
2023-05-18T13:23:08.109Z,97044.50
2023-05-18T13:25:36.372Z,97050.41
2023-05-18T13:28:04.841Z,97046.34
2023-05-18T13:30:33.512Z,97038.59
2023-05-18T13:33:01.670Z,97036.19
2023-05-18T13:35:29.888Z,97048.56
2023-05-18T13:37:59.536Z,97033.25
2023-05-18T13:40:27.448Z,97032.56
2023-05-18T13:42:55.419Z,97033.97
2023-05-18T13:45:23.726Z,97033.00
2023-05-18T13:47:53.457Z,97038.22
2023-05-18T13:50:23.066Z,97035.41
2023-05-18T13:52:51.120Z,97029.91
2023-05-18T13:55:20.496Z,97020.09
2023-05-18T13:57:48.376Z,97022.06
2023-05-18T14:00:17.134Z,97017.56
2023-05-18T14:02:46.200Z,97014.19
2023-05-18T14:05:15.146Z,97000.41
2023-05-18T14:07:43.930Z,97013.25
2023-05-18T14:10:13.524Z,97008.81
2023-05-18T14:12:43.409Z,97012.22
2023-05-18T14:15:14.861Z,97002.97
2023-05-18T14:17:43.118Z,97008.00
2023-05-18T14:20:12.071Z,97008.16
2023-05-18T14:22:40.025Z,97004.38
2023-05-18T14:25:08.678Z,96997.28
2023-05-18T14:27:36.652Z,96989.94
2023-05-18T14:30:07.159Z,96989.66
2023-05-18T14:32:35.148Z,97002.50
2023-05-18T14:35:03.608Z,96994.53
2023-05-18T14:37:33.050Z,96995.41
2023-05-18T14:40:00.951Z,96993.47
2023-05-18T14:42:28.805Z,96996.25
2023-05-18T14:44:56.699Z,97001.16
2023-05-18T14:47:26.097Z,96988.91
2023-05-18T14:49:54.093Z,96997.28
2023-05-18T14:52:21.977Z,96981.94
2023-05-18T14:54:49.873Z,96993.47
2023-05-18T14:57:17.770Z,96994.09
2023-05-18T14:59:45.748Z,96988.78
2023-05-18T15:02:13.752Z,96989.97
2023-05-18T15:04:43.036Z,96998.28
2023-05-18T15:07:10.960Z,96997.72
2023-05-18T15:09:38.884Z,96997.47
2023-05-18T15:12:07.291Z,96991.13
2023-05-18T15:14:35.536Z,96994.03
2023-05-18T15:17:03.502Z,96993.59
2023-05-18T15:19:31.530Z,96991.69
2023-05-18T15:22:00.857Z,96992.84
2023-05-18T15:24:28.756Z,96992.00
2023-05-18T15:26:56.729Z,96991.56
2023-05-18T15:29:24.648Z,96984.56
2023-05-18T15:31:54.987Z,96980.22
2023-05-18T15:34:22.913Z,96994.28
2023-05-18T15:36:52.797Z,96993.72
2023-05-18T15:39:22.057Z,96992.63
2023-05-18T15:41:49.957Z,96992.94
2023-05-18T15:44:17.854Z,96993.22
2023-05-18T15:46:45.906Z,97001.78
2023-05-18T15:49:13.971Z,97003.06
2023-05-18T15:51:41.853Z,96999.41
2023-05-18T15:54:10.217Z,97000.97
2023-05-18T15:56:39.644Z,96997.06
2023-05-18T15:59:08.626Z,96995.50
2023-05-18T16:01:36.776Z,97004.50
2023-05-18T16:04:04.818Z,97003.09
2023-05-18T16:06:34.496Z,96994.69
2023-05-18T16:09:02.612Z,96993.72
2023-05-18T16:11:30.683Z,96988.09
2023-05-18T16:14:00.509Z,96991.34
2023-05-18T16:16:28.957Z,96995.44
2023-05-18T16:18:57.042Z,96993.31
2023-05-18T16:21:24.926Z,97004.66
2023-05-18T16:23:52.742Z,96997.09
2023-05-18T16:26:21.898Z,96990.78
2023-05-18T16:28:50.170Z,96988.28
2023-05-18T16:31:19.418Z,96993.75
2023-05-18T16:33:47.323Z,97003.00
2023-05-18T16:36:15.360Z,96997.66
2023-05-18T16:38:43.178Z,97002.84
2023-05-18T16:41:12.430Z,97005.38
2023-05-18T16:43:40.453Z,97005.38
2023-05-18T16:46:08.434Z,97009.31
2023-05-18T16:48:37.875Z,97018.53
2023-05-18T16:51:07.060Z,97003.56
2023-05-18T16:53:35.267Z,97013.66
2023-05-18T16:56:03.892Z,97010.97
2023-05-18T16:58:31.929Z,97014.63
2023-05-18T17:00:59.764Z,97017.00
2023-05-18T17:03:28.170Z,97019.69
2023-05-18T17:05:57.499Z,97015.06
2023-05-18T17:08:25.491Z,97018.84
2023-05-18T17:10:53.443Z,97018.41
2023-05-18T17:13:21.472Z,97015.19
2023-05-18T17:15:49.489Z,97016.59
2023-05-18T17:18:17.473Z,97018.84
2023-05-18T17:20:45.427Z,97017.84
2023-05-18T17:23:18.635Z,97017.97
2023-05-18T17:25:48.348Z,97022.47
2023-05-18T17:28:18.883Z,97025.13
2023-05-18T17:30:46.881Z,97022.75
2023-05-18T17:33:14.941Z,97024.41
2023-05-18T17:35:42.935Z,97018.66
2023-05-18T17:38:10.965Z,97020.47
2023-05-18T17:40:40.629Z,97017.66
2023-05-18T17:43:08.949Z,97023.13
2023-05-18T17:45:36.918Z,97024.25
2023-05-18T17:48:05.200Z,97031.66
2023-05-18T17:50:33.310Z,97018.63
2023-05-18T17:53:01.486Z,97022.97
2023-05-18T17:55:29.323Z,97019.75
2023-05-18T17:58:01.008Z,97024.38
2023-05-18T18:00:29.274Z,97017.63
2023-05-18T18:02:57.476Z,97022.25
2023-05-18T18:05:25.694Z,97019.59
2023-05-18T18:07:54.171Z,97025.47
2023-05-18T18:10:22.240Z,97023.78
2023-05-18T18:12:50.170Z,97019.28
2023-05-18T18:15:20.034Z,97020.41
2023-05-18T18:17:48.004Z,97021.28
2023-05-18T18:20:15.930Z,97019.03
2023-05-18T18:22:43.810Z,97021.81
2023-05-18T18:25:11.789Z,97018.31
2023-05-18T18:27:39.766Z,97017.59
2023-05-18T18:30:08.781Z,97021.22
2023-05-18T18:32:38.172Z,97021.66
2023-05-18T18:35:07.124Z,97018.13
2023-05-18T18:37:35.137Z,97022.63
2023-05-18T18:40:03.097Z,97032.69
2023-05-18T18:42:30.963Z,97026.50
2023-05-18T18:44:58.843Z,97030.44
2023-05-18T18:47:26.891Z,97028.75
2023-05-18T18:49:56.161Z,97035.16
2023-05-18T18:52:24.029Z,97041.59
2023-05-18T18:54:51.873Z,97044.38
2023-05-18T18:57:19.832Z,97045.38
2023-05-18T18:59:47.890Z,97046.59
2023-05-18T19:02:16.283Z,97036.25
2023-05-18T19:04:44.188Z,97045.91
2023-05-18T19:07:13.962Z,97045.19
2023-05-18T19:09:41.920Z,97050.91
2023-05-18T19:12:10.582Z,97052.72
2023-05-18T19:14:38.520Z,97047.69
2023-05-18T19:17:06.429Z,97056.63
2023-05-18T19:19:34.306Z,97063.03
2023-05-18T19:22:02.256Z,97065.00
2023-05-18T19:24:31.479Z,97066.94
2023-05-18T19:26:59.527Z,97071.94
2023-05-18T19:29:28.545Z,97075.31
2023-05-18T19:31:57.696Z,97080.88
2023-05-18T19:34:25.639Z,97075.84
2023-05-18T19:36:53.773Z,97071.63
2023-05-18T19:39:22.465Z,97073.56
2023-05-18T19:41:51.755Z,97082.53
2023-05-18T19:44:19.626Z,97075.66
2023-05-18T19:46:47.565Z,97076.75
2023-05-18T19:49:15.508Z,97084.13
2023-05-18T19:51:43.457Z,97086.91
2023-05-18T19:54:11.898Z,97082.59
2023-05-18T19:56:39.853Z,97093.09
2023-05-18T19:59:09.122Z,97090.56
2023-05-18T20:01:37.077Z,97097.53
2023-05-18T20:04:05.173Z,97096.38
2023-05-18T20:06:33.934Z,97095.28
2023-05-18T20:09:01.784Z,97088.66
2023-05-18T20:11:29.738Z,97101.94
2023-05-18T20:13:57.737Z,97102.19
2023-05-18T20:16:29.130Z,97105.94
2023-05-18T20:18:57.869Z,97101.84
2023-05-18T20:21:25.829Z,97098.59
2023-05-18T20:23:53.727Z,97098.97
2023-05-18T20:26:22.691Z,97103.72
2023-05-18T20:28:50.609Z,97111.94
2023-05-18T20:31:18.584Z,97101.00
2023-05-18T20:33:47.825Z,97100.28
2023-05-18T20:36:16.255Z,97106.22
2023-05-18T20:38:44.368Z,97108.25
2023-05-18T20:41:12.316Z,97103.22
2023-05-18T20:43:40.356Z,97105.41
2023-05-18T20:46:09.707Z,97103.13
2023-05-18T20:48:38.786Z,97103.63
2023-05-18T20:51:15.219Z,97103.16
2023-05-18T20:53:43.888Z,97106.28
2023-05-18T20:56:12.033Z,97103.44
2023-05-18T20:58:48.659Z,97103.44
2023-05-18T21:01:18.521Z,97099.97
2023-05-18T21:03:46.680Z,97096.59
2023-05-18T21:06:16.052Z,97093.31
2023-05-18T21:08:45.596Z,97107.09
2023-05-18T21:11:13.593Z,97104.91
2023-05-18T21:13:41.755Z,97101.88
2023-05-18T21:16:09.736Z,97105.53
2023-05-18T21:18:37.824Z,97101.53
2023-05-18T21:21:05.751Z,97097.19
2023-05-18T21:23:35.384Z,97100.56
2023-05-18T21:26:03.510Z,97098.38
2023-05-18T21:28:31.421Z,97096.69
2023-05-18T21:30:59.362Z,97099.44
2023-05-18T21:33:27.272Z,97097.06
2023-05-18T21:35:55.176Z,97100.69
2023-05-18T21:38:23.182Z,97094.75
2023-05-18T21:40:52.735Z,97093.31
2023-05-18T21:43:20.590Z,97096.31
2023-05-18T21:45:48.626Z,97096.09
2023-05-18T21:48:16.782Z,97098.00
2023-05-18T21:50:44.758Z,97092.09
2023-05-18T21:53:12.727Z,97093.06
2023-05-18T21:55:40.700Z,97096.66
2023-05-18T21:58:09.932Z,97089.69
2023-05-18T22:00:38.349Z,97091.38
2023-05-18T22:03:06.668Z,97091.50
2023-05-18T22:05:34.960Z,97091.59
2023-05-18T22:08:02.853Z,97097.00
2023-05-18T22:10:32.451Z,97099.66
2023-05-18T22:13:00.806Z,97095.97
2023-05-18T22:15:30.055Z,97097.63
2023-05-18T22:17:57.940Z,97092.34
2023-05-18T22:20:25.928Z,97094.00
2023-05-18T22:22:53.896Z,97089.59
2023-05-18T22:25:22.099Z,97088.84
2023-05-18T22:27:50.012Z,97095.81
2023-05-18T22:30:18.517Z,97086.06
2023-05-18T22:32:47.854Z,97085.13
2023-05-18T22:35:15.729Z,97087.63
2023-05-18T22:37:43.614Z,97091.25
2023-05-18T22:40:12.384Z,97077.19
2023-05-18T22:42:40.809Z,97074.53
2023-05-18T22:45:11.519Z,97075.47
2023-05-18T22:47:40.122Z,97082.59
2023-05-18T22:50:10.635Z,97081.75
2023-05-18T22:52:38.737Z,97074.78
2023-05-18T22:55:12.938Z,97070.31
2023-05-18T22:57:41.189Z,97075.59
2023-05-18T23:00:10.533Z,97073.78
2023-05-18T23:02:38.809Z,97075.72
2023-05-18T23:05:07.130Z,97072.97
2023-05-18T23:07:37.709Z,97070.78
2023-05-18T23:10:06.522Z,97070.66
2023-05-18T23:12:34.612Z,97082.22
2023-05-18T23:15:04.005Z,97076.06
2023-05-18T23:17:32.604Z,97077.53
2023-05-18T23:20:07.280Z,97070.78
2023-05-18T23:22:36.554Z,97072.69
2023-05-18T23:25:08.562Z,97070.88
2023-05-18T23:27:36.526Z,97073.44
2023-05-18T23:30:04.707Z,97068.03
2023-05-18T23:32:33.304Z,97069.94
2023-05-18T23:35:01.717Z,97063.81
2023-05-18T23:37:31.854Z,97065.72
2023-05-18T23:40:02.332Z,97058.88
2023-05-18T23:42:31.014Z,97064.72
2023-05-18T23:44:59.532Z,97061.50
2023-05-18T23:47:27.855Z,97057.41
2023-05-18T23:49:56.351Z,97060.31
2023-05-18T23:52:27.800Z,97054.38
2023-05-18T23:54:58.592Z,97057.88
2023-05-18T23:57:28.571Z,97058.22
2023-05-18T23:59:56.889Z,97050.06
